NCAR-RAP Real-Time Weather Data

Output produced by METARs form (23 August 2017  08:10 UTC)
found at http://weather.rap.ucar.edu/surface/
 
Conditions at: KLOU observed 23 August 2017  07:53 UTC
Temperature: 20.6°C (69°F)
Dewpoint: 19.4°C (67°F) [RH = 93%]
Pressure (altimeter): 29.99 inches Hg (1015.7 mb)
[Sea-level pressure: 1015.0 mb]
Winds: calm
Visibility: 10 or more miles (16+ km)
Ceiling: 5000 feet AGL
Clouds: overcast cloud deck at 5000 feet AGL
Present Weather: automated observation with no human augmentation;
there may or may not be significant weather present at this time
KLOU 230753Z AUTO 00000KT 10SM OVC050 21/19 A2999 RMK AO2 SLP150 T02060194